New York, NY (10034)

12:35 AM EDT on October 02, 2014 (GMT -0400)
Bronx Community College | Change Station
CLOSE
Current Station
Personal Weather Station
Location: New York, NY
Elevation: 184 ft
Nearby Weather Stations

Elev 184 ft 40.86 °N, 73.91 °W | Updated 16 seconds ago

Overcast
Overcast
60.3 °F
Feels Like 60.3 °F
N
2.4
Wind Variable Wind from SE
Gusts 5.0 mph

Today
High -- | Low -- °F
--% Chance of Precip.
Yesterday
High -- | Low -- °F
Precip. -- in
6:53 AM 6:36 PM
First Quarter, 54% visible
Pressure 30.08 in
Visibility 10.0 miles
Clouds Overcast 1500 ft
Dew Point 60 °F
Humidity 100%
Rainfall 0.00 in
Snow Depth Not available.
UV 0.0 out of 12
Pollen 2.30 out of 12
PM2.5 Good
Flu Activity Not available.
METAR KLGA 020351Z 03008KT 10SM OVC015 16/14 A3008 RMK AO2 RAB01E12 SLP184 P0000 T01610139

More Conditions Fewer Conditions

Pressure 30.08 in
Visibility 10.0 miles
Clouds Overcast 1500 ft
Dew Point 60 °F
Humidity 100%
Rainfall 0.00 in
Snow Depth Not available.
UV 0.0 out of 12
Pollen 2.30 out of 12
PM2.5 Good
Flu Activity Not available.
METAR KLGA 020351Z 03008KT 10SM OVC015 16/14 A3008 RMK AO2 RAB01E12 SLP184 P0000 T01610139

More Conditions Fewer Conditions

10-Day Weather Forecast

Almanac

Astronomy

Oct. 02, 2014 Rise Set
Actual Time 6:53 AM EDT 6:36 PM EDT
Civil Twilight 6:25 AM EDT 7:03 PM EDT
Nautical Twilight 5:54 AM EDT 7:35 PM EDT
Astronomical Twilight 5:21 AM EDT 8:07 PM EDT
Moon 2:42 PM EDT 12:05 AM EDT
Length of Visible Light 12h 37m
Length of Day
11h 42m
Tomorrow will be 2m 41s shorter.
First Quarter, 54% of the Moon is Illuminated
Today
First Quarter
Oct 8
Full
Oct 15
Last Quarter
Oct 23
New
Oct 30
First Quarter

Today's Extremes

State Highs State Lows

Community

WunderPhotos

Upload Photos

1,758,187 photos uploaded!

Nearby

Air Quality

  Air Quality AQ Index Pollutant
Yesterday Good
PM2.5
Yesterday Good
OZONE
Current Good
PM2.5
Wednesday Good
PM2.5
Thursday Good
PM2.5

Snow Depth

Station Depth Elevation
No new snow has been reported.

Earthquake Activity

City Distance Mag. Time & Date
No recent earthquake activity has been reported nearby.
Minimum magnitude displayed is 2.5.

Coastal Water Temperatures

Place Temperature
Kings Point, NY 66.9 °F
Bridgeport, CT 68.0 °F

Nearby Weather Stations